Latest Weather Observations for Tuggeranong

IDN60901

Issued at 8:11 am EST Sunday 29 May 2016 (issued every 10 minutes, with the page automatically refreshed every 10 minutes)

About weather observations | Map of Canberra area stations | Latest observations for Canberra area | Other Formats
Station Details ID: 070339 Name: TUGGERANONG (ISABELLA PLAINS) AWS Lat: -35.42 Lon: 149.09 Height: 586.7 m
Data from the previous 72 hours. | See also: Recent months at Tuggeranong
Date/Time
EST
Tmp

°C
App
Tmp
°C
Dew
Point
°C
Rel
Hum
%
Delta-T

°C
Wind Press
QNH
hPa
Press
MSL
hPa
Rain
since
9 am
mm
Dir
 
Spd
km/h
Gust
km/h
Spd
kts
Gust
kts
29/08:00am -2.3 -4.6 -2.6 98 0.0 CALM 0 0 0 0 1017.7 1017.8 0.2
29/07:30am -3.9 -6.5 -4.7 94 0.1 CALM 0 0 0 0 1017.2 1017.4 0.2
29/07:00am -4.0 -6.6 -5.0 93 0.2 CALM 0 0 0 0 1017.0 1017.2 0.2
29/06:30am -4.0 -6.6 -4.8 94 0.1 CALM 0 0 0 0 1016.7 1016.9 0.2
29/06:00am -4.4 -7.1 -5.5 92 0.2 CALM 0 0 0 0 1016.3 1016.4 0.2
29/05:30am -3.3 -5.8 -4.0 95 0.1 CALM 0 0 0 0 1015.8 1015.9 0.2
29/05:00am -4.0 -6.6 -5.1 92 0.2 CALM 0 0 0 0 1016.0 1016.1 0.2
29/04:30am -2.9 -5.4 -3.6 95 0.1 CALM 0 2 0 1 1015.5 1015.7 0.2
29/04:00am -3.2 -5.7 -4.0 94 0.1 CALM 0 0 0 0 1015.5 1015.7 0.2
29/03:30am -3.0 -5.5 -4.0 93 0.2 CALM 0 6 0 3 1015.3 1015.5 0.2
29/03:00am -3.1 -5.6 -4.1 93 0.2 CALM 0 0 0 0 1015.1 1015.2 0.2
29/02:30am -2.3 -5.4 -3.0 95 0.1 NW 4 9 2 5 1014.8 1014.9 0.2
29/02:00am -2.6 -5.1 -3.7 92 0.3 CALM 0 0 0 0 1014.5 1014.6 0.2
29/01:30am -2.4 -4.8 -3.4 93 0.2 CALM 0 0 0 0 1014.4 1014.5 0.2
29/01:00am -2.0 -4.4 -3.1 92 0.3 CALM 0 0 0 0 1014.1 1014.2 0.2
29/12:30am -1.6 -3.9 -2.7 92 0.3 CALM 0 0 0 0 1014.0 1014.1 0.2
29/12:00am -1.5 -3.9 -2.8 91 0.4 CALM 0 0 0 0 1013.6 1013.7 0.2
 
Date/Time
EST
Tmp

°C
App
Tmp
°C
Dew
Point
°C
Rel
Hum
%
Delta-T

°C
Wind Press
QNH
hPa
Press
MSL
hPa
Rain
since
9 am
mm
Dir
 
Spd
km/h
Gust
km/h
Spd
kts
Gust
kts
28/11:30pm -1.1 -3.4 -2.4 91 0.4 CALM 0 0 0 0 1013.4 1013.5 0.2
28/11:00pm -0.7 -3.0 -2.4 88 0.6 CALM 0 0 0 0 1013.4 1013.5 0.2
28/10:30pm 0.2 -2.0 -1.4 89 0.6 CALM 0 0 0 0 1013.3 1013.4 0.2
28/10:00pm 0.5 -1.7 -1.7 85 0.8 CALM 0 0 0 0 1013.1 1013.2 0.2
28/09:30pm 1.6 -0.5 -1.0 83 1.0 CALM 0 0 0 0 1013.0 1013.1 0.2
28/09:00pm 2.1 -0.4 -0.8 81 1.1 ENE 2 7 1 4 1012.8 1012.9 0.2
28/08:30pm 2.4 -1.1 -1.0 78 1.3 ENE 7 9 4 5 1012.6 1012.7 0.2
28/08:00pm 3.2 0.7 -1.2 73 1.7 ESE 2 7 1 4 1012.4 1012.5 0.2
28/07:30pm 4.1 1.9 -1.5 67 2.1 CALM 0 0 0 0 1011.8 1011.9 0.2
28/07:00pm 5.7 3.0 -2.4 56 3.0 W 2 7 1 4 1011.4 1011.5 0.2
28/06:30pm 7.5 4.1 -2.0 51 3.7 WSW 6 11 3 6 1010.9 1011.0 0.2
28/06:00pm 8.3 4.3 -2.0 48 4.0 WSW 9 13 5 7 1010.3 1010.3 0.2
28/05:30pm 8.7 4.8 -1.4 49 4.0 W 9 15 5 8 1009.5 1009.6 0.2
28/05:00pm 9.9 8.8 5.1 72 2.3 CALM 0 0 0 0 1008.7 1008.7 0.2
28/04:30pm 10.6 8.4 5.4 70 2.5 SE 6 7 3 4 1008.2 1008.3 0.2
28/04:00pm 10.8 8.5 5.6 70 2.5 E 7 9 4 5 1007.7 1007.7 0.2
28/03:30pm 10.5 9.1 5.7 72 2.3 E 2 9 1 5 1007.7 1007.7 0.2
28/03:00pm 10.2 8.0 5.4 72 2.3 NNW 6 9 3 5 1007.4 1007.4 0.2
28/02:30pm 10.0 7.6 5.2 72 2.3 N 7 11 4 6 1007.0 1007.0 0.2
28/02:00pm 10.4 7.5 4.8 68 2.6 NW 9 15 5 8 1006.8 1006.8 0.2
28/01:30pm 11.4 8.2 3.2 57 3.7 NNW 9 15 5 8 1006.3 1006.3 0.2
28/01:00pm 11.0 8.1 2.6 56 3.8 NW 7 11 4 6 1006.4 1006.4 0.2
28/12:30pm 10.0 7.3 2.4 59 3.3 W 6 11 3 6 1006.4 1006.4 0.2
28/12:00pm 8.7 5.9 1.8 62 3.0 NW 6 9 3 5 1006.7 1006.7 0.2
28/11:30am 7.2 4.1 1.1 65 2.5 WNW 7 9 4 5 1007.0 1007.0 0.2
28/11:00am 6.2 3.0 0.7 68 2.3 WSW 7 9 4 5 1007.4 1007.4 0.2
28/10:30am 5.8 2.6 0.6 69 2.1 W 7 9 4 5 1007.5 1007.5 0.2
28/10:00am 5.9 2.8 0.3 67 2.3 W 6 13 3 7 1007.4 1007.4 0.2
28/09:30am 4.8 2.5 0.4 73 1.8 NNW 2 7 1 4 1007.3 1007.3 0.2
28/09:00am 3.5 0.2 0.4 80 1.2 W 7 9 4 5 1007.3 1007.3 0.4
28/08:30am 2.8 0.8 -0.1 81 1.1 CALM 0 0 0 0 1007.4 1007.4 0.4
28/08:00am 2.5 0.5 0.1 84 0.9 CALM 0 0 0 0 1007.6 1007.6 0.2
28/07:30am 2.2 0.2 -0.2 84 0.9 CALM 0 0 0 0 1007.5 1007.5 0.2
28/07:00am 1.9 -1.3 -0.8 82 1.0 WSW 6 7 3 4 1007.5 1007.5 0.2
28/06:30am 2.0 -1.1 -0.1 86 0.8 WSW 6 7 3 4 1007.3 1007.3 0.2
28/06:00am 1.8 -0.6 -0.4 85 0.8 NNW 2 6 1 3 1007.1 1007.1 0.2
28/05:30am 1.5 -1.7 -0.4 87 0.7 WNW 6 7 3 4 1007.1 1007.1 0.0
28/05:00am 0.9 -1.2 -0.5 90 0.5 CALM 0 0 0 0 1007.1 1007.1 0.0
28/04:30am 0.4 -1.8 -1.3 88 0.6 CALM 0 0 0 0 1007.2 1007.2 0.0
28/04:00am 0.7 -2.6 -1.1 88 0.7 WNW 6 9 3 5 1007.1 1007.1 0.0
28/03:30am 0.9 -2.3 -0.4 91 0.5 SSW 6 9 3 5 1007.0 1007.0 0.0
28/03:00am 0.5 -2.7 -0.5 93 0.4 ESE 6 9 3 5 1007.1 1007.1 0.0
28/02:30am 0.5 -1.7 -1.3 88 0.7 CALM 0 0 0 0 1007.4 1007.4 0.0
28/02:00am 2.0 -1.1 -0.1 86 0.8 E 6 9 3 5 1007.7 1007.7 0.0
28/01:30am 1.7 -1.5 -0.2 87 0.7 ENE 6 9 3 5 1008.1 1008.2 0.0
28/01:00am 1.4 -2.4 -0.5 87 0.7 ESE 9 15 5 8 1008.0 1008.1 0.0
28/12:30am 1.2 -1.7 -1.2 84 0.9 ENE 4 7 2 4 1007.9 1008.0 0.0
28/12:00am 1.4 -2.1 -1.0 84 0.9 ENE 7 9 4 5 1008.2 1008.3 0.0
 
Date/Time
EST
Tmp

°C
App
Tmp
°C
Dew
Point
°C
Rel
Hum
%
Delta-T

°C
Wind Press
QNH
hPa
Press
MSL
hPa
Rain
since
9 am
mm
Dir
 
Spd
km/h
Gust
km/h
Spd
kts
Gust
kts
27/11:30pm 2.1 -0.8 -1.3 78 1.3 NNE 4 7 2 4 1008.4 1008.4 0.0
27/11:00pm 3.1 -1.0 -0.4 78 1.3 ESE 11 15 6 8 1008.6 1008.6 0.0
27/10:30pm 3.8 0.2 0.3 78 1.4 NNE 9 11 5 6 1008.4 1008.4 0.0
27/10:00pm 3.1 0.2 -0.9 75 1.5 ENE 4 7 2 4 1008.2 1008.3 0.0
27/09:30pm 4.9 1.6 -1.1 65 2.3 WSW 6 9 3 5 1008.0 1008.1 0.0
27/09:00pm 6.4 1.6 -0.1 63 2.6 NW 15 24 8 13 1007.8 1007.8 0.0
27/08:30pm 6.6 2.1 -0.1 62 2.7 NW 13 20 7 11 1007.6 1007.6 0.0
27/08:00pm 6.6 2.9 0.1 63 2.6 NW 9 15 5 8 1007.4 1007.4 0.0
27/07:30pm 7.8 4.1 0.1 58 3.1 NW 9 17 5 9 1007.2 1007.2 0.0
27/07:00pm 8.3 2.6 -0.7 53 3.6 W 19 28 10 15 1006.8 1006.8 0.0
27/06:30pm 8.3 3.0 -0.7 53 3.6 WNW 17 24 9 13 1006.8 1006.8 0.0
27/06:00pm 8.6 4.1 -0.4 53 3.7 WNW 13 20 7 11 1006.4 1006.4 0.0
27/05:30pm 8.5 4.0 -0.5 53 3.7 W 13 19 7 10 1005.9 1005.9 0.0
27/05:00pm 9.0 3.7 -0.9 50 4.0 W 17 28 9 15 1005.4 1005.4 0.0
27/04:30pm 9.7 3.5 -0.2 50 4.1 WSW 22 39 12 21 1005.1 1005.1 0.0
27/04:00pm 11.0 5.4 -0.2 46 4.7 WSW 19 28 10 15 1004.6 1004.6 0.0
27/03:30pm 11.8 6.6 0.0 44 5.0 W 17 26 9 14 1004.2 1004.2 0.0
27/03:00pm 11.7 5.9 -0.4 43 5.1 W 20 33 11 18 1003.7 1003.7 0.0
27/02:30pm 12.0 5.9 0.1 44 5.1 W 22 39 12 21 1003.5 1003.4 0.0
27/02:00pm 11.9 5.8 0.4 45 5.0 W 22 33 12 18 1003.4 1003.3 0.0
27/01:30pm 11.9 6.2 0.4 45 4.9 W 20 30 11 16 1003.4 1003.3 0.0
27/01:02pm 11.1 4.5 -0.7 44 4.9 W 24 46 13 25 1003.3 1003.2 0.0
27/01:00pm 11.8 5.6 0.0 44 5.0 W 22 33 12 18 1003.4 1003.3 0.0
27/12:30pm 10.8 3.1 -0.3 46 4.6 WSW 30 50 16 27 1003.5 1003.4 0.0
27/12:24pm 10.7 3.3 -0.4 46 4.6 WSW 28 50 15 27 1003.5 1003.4 0.0
27/12:00pm 11.5 4.6 0.0 45 4.9 W 26 37 14 20 1003.7 1003.7 0.0
27/11:30am 10.9 5.4 0.9 50 4.3 W 19 32 10 17 1003.9 1003.9 0.0
27/11:00am 9.8 4.1 0.4 52 4.0 WSW 20 33 11 18 1004.1 1004.1 0.0
27/10:30am 9.9 4.8 0.5 52 4.0 W 17 26 9 14 1004.3 1004.3 0.0
27/10:00am 11.0 6.6 2.6 56 3.8 W 15 22 8 12 1004.3 1004.3 0.0
27/09:30am 9.2 4.5 1.1 57 3.4 WNW 15 28 8 15 1004.3 1004.3 0.0
27/09:00am 9.4 4.4 1.3 57 3.5 WNW 17 26 9 14 1004.1 1004.1 0.2
27/08:30am 9.4 5.9 1.1 56 3.5 WNW 9 17 5 9 1004.0 1004.0 0.2
27/08:00am 7.7 4.8 1.5 65 2.6 ENE 6 9 3 5 1003.6 1003.6 0.2
27/07:30am 5.2 2.6 1.0 74 1.7 E 4 7 2 4 1003.4 1003.3 0.2
27/07:00am 6.1 2.9 0.6 68 2.2 S 7 11 4 6 1003.1 1003.0 0.2
27/06:30am 7.5 3.2 0.9 63 2.7 WNW 13 22 7 12 1002.7 1002.7 0.2
27/06:00am 7.8 2.7 1.0 62 2.9 WNW 17 26 9 14 1002.6 1002.6 0.2
27/05:30am 7.9 2.9 1.3 63 2.8 WNW 17 26 9 14 1002.4 1002.4 0.2
27/05:00am 8.3 3.4 1.7 63 2.8 WNW 17 24 9 13 1002.4 1002.4 0.2
27/04:30am 8.3 4.1 1.9 64 2.7 WNW 13 28 7 15 1002.4 1002.4 0.2
27/04:00am 8.4 4.3 2.2 65 2.7 WNW 13 22 7 12 1002.1 1002.1 0.2
27/03:30am 8.6 4.5 2.4 65 2.7 WNW 13 20 7 11 1002.2 1002.2 0.2
27/03:00am 8.8 4.8 3.0 67 2.6 WNW 13 24 7 13 1002.2 1002.2 0.2
27/02:30am 8.9 4.2 3.3 68 2.5 WNW 17 22 9 12 1002.1 1002.1 0.2
27/02:00am 9.1 4.8 3.5 68 2.5 WNW 15 19 8 10 1002.1 1002.1 0.2
27/01:30am 9.0 4.4 3.8 70 2.3 WNW 17 24 9 13 1001.8 1001.7 0.2
27/01:00am 9.2 4.7 4.0 70 2.4 WNW 17 24 9 13 1001.9 1001.8 0.2
27/12:30am 9.3 5.5 4.1 70 2.4 WNW 13 20 7 11 1002.1 1002.1 0.2
27/12:00am 9.3 5.6 4.5 72 2.2 WNW 13 19 7 10 1002.3 1002.3 0.2
 
Date/Time
EST
Tmp

°C
App
Tmp
°C
Dew
Point
°C
Rel
Hum
%
Delta-T

°C
Wind Press
QNH
hPa
Press
MSL
hPa
Rain
since
9 am
mm
Dir
 
Spd
km/h
Gust
km/h
Spd
kts
Gust
kts
26/11:30pm 7.9 5.9 4.5 79 1.5 WNW 4 9 2 5 1002.4 1002.4 0.2
26/11:00pm 8.6 6.1 4.6 76 1.8 NW 7 13 4 7 1002.4 1002.4 0.2
26/10:30pm 8.8 5.5 4.4 74 2.0 WNW 11 20 6 11 1002.5 1002.5 0.2
26/10:00pm 8.9 5.1 3.9 71 2.3 W 13 19 7 10 1002.6 1002.6 0.2
26/09:30pm 8.8 4.3 4.0 72 2.2 NW 17 26 9 14 1002.8 1002.8 0.2
26/09:00pm 9.2 5.1 4.4 72 2.2 WNW 15 22 8 12 1003.2 1003.1 0.2
26/08:30pm 9.7 4.6 4.3 69 2.5 W 20 32 11 17 1002.8 1002.8 0.2
26/08:00pm 9.9 6.5 5.9 76 1.9 W 13 20 7 11 1002.6 1002.6 0.2
26/07:30pm 9.5 7.3 7.8 89 0.8 WNW 9 13 5 7 1002.3 1002.3 0.2
26/07:00pm 10.0 6.6 7.6 85 1.2 NW 15 20 8 11 1002.0 1001.9 0.2
26/06:30pm 10.0 6.9 7.3 83 1.3 NW 13 20 7 11 1001.8 1001.7 0.2
26/06:00pm 10.1 6.5 6.6 79 1.7 NW 15 24 8 13 1001.3 1001.2 0.2
26/05:30pm 10.9 7.3 6.6 75 2.1 NW 15 22 8 12 1001.3 1001.2 0.2
26/05:00pm 11.2 7.2 6.5 73 2.3 NW 17 22 9 12 1000.8 1000.8 0.0
26/04:30pm 11.0 7.0 6.7 75 2.1 NW 17 22 9 12 1000.5 1000.4 0.0
26/04:00pm 11.4 7.1 6.9 74 2.2 WNW 19 30 10 16 1000.3 1000.2 0.0
26/03:30pm 11.5 7.6 7.2 75 2.1 WNW 17 24 9 13 1000.4 1000.3 0.0
26/03:00pm 11.9 8.2 7.8 76 2.1 NW 17 28 9 15 1000.5 1000.4 0.0
26/02:30pm 11.1 8.4 8.8 86 1.2 NW 13 20 7 11 1000.7 1000.7 0.0
26/02:00pm 10.4 7.7 9.0 91 0.7 NNW 13 22 7 12 1000.9 1000.9 0.0
26/01:30pm 9.7 6.9 8.6 93 0.6 NNW 13 24 7 13 1001.5 1001.4 0.0
26/01:00pm 9.5 5.5 8.3 92 0.6 N 19 28 10 15 1001.9 1001.8 0.0
26/12:30pm 9.3 6.0 7.9 91 0.7 NNW 15 26 8 14 1002.6 1002.6 0.0
26/12:00pm 8.7 5.4 8.1 96 0.3 NNW 15 28 8 15 1003.0 1002.9 0.0
26/11:30am 8.8 5.4 7.6 92 0.6 NNW 15 24 8 13 1004.0 1004.0 0.0
26/11:00am 8.9 5.5 7.5 91 0.7 NNW 15 24 8 13 1004.2 1004.2 0.0
26/10:30am 8.9 5.4 7.4 90 0.7 NNW 15 24 8 13 1004.9 1004.8 0.0
26/10:00am 8.4 4.6 7.5 94 0.4 N 17 24 9 13 1005.3 1005.3 0.0
26/09:30am 8.6 5.2 7.5 93 0.5 N 15 20 8 11 1005.5 1005.5 0.0
26/09:00am 8.6 4.8 7.4 92 0.6 NNW 17 26 9 14 1005.8 1005.8 0.0
26/08:30am 8.7 4.8 7.3 91 0.7 N 17 22 9 12 1006.0 1006.0 0.0

Latest Capital City Observations: Canberra | Sydney | Melbourne | Brisbane | Adelaide | Perth | Hobart | Darwin

Other Formats:

Comma delimited format used in spreadsheet applications
http://www.bom.gov.au/fwo/IDN60903/IDN60903.94925.axf

JavaScript Object Notation format (JSON) in row-major order
http://www.bom.gov.au/fwo/IDN60903/IDN60903.94925.json